Relevés horaires Beauvechain (Belgique)


Relevés horaires à Beauvechain - Dimanche 04 Sept. 2022
Heure UTC1 Température [°C] Vent [km/h] Hum. [%] Pres.4 [hPa] Visi. [Km] Nébu. [octa] Préc.5 [mm] Cond.
2m. Res. Ros. Dir.2 Vit. Moy. Raf.3
23:00 20.4 20.4 11.2 NNO 1.9 -- 5.6 56 1019(0.4/3h) 20 -- -- --
22:00 21.9 21.9 10.6 NNO 1.9 -- 3.7 49 1018.7(0.4/3h) 20 -- -- --
21:00 21.3 21.3 10.3 NNO 1.9 -- 3.7 49 1018.7(0.8/3h) 20 -- -- --
20:00 22.3 22.3 9.3 NNO 1.9 -- 1.9 44 1018.3(0.8/3h) 20 -- -- --
19:00 23.1 23.1 9.8 NNO 1.9 -- 3.7 43 1018.2(0.5/3h) 20 -- -- --
18:00 24.2 24.2 10.4 SSO 3.7 -- 22.2 42 1017.7(0.0/3h) 20 -- -- --
17:00 26.0 26.0 9.8 SSO 5.6 -- 13.0 36 1017.3(-0.4/3h) 20 -- -- --
16:00 26.2 26.2 9.6 S 7.4 -- 18.5 35 1017.5(-0.2/3h) 20 -- -- --
15:00 27.0 27.0 9.3 SSO 7.4 -- 22.2 33 1017.6(0.1/3h) 20 -- -- --
14:00 26.5 26.5 9.6 SSO 9.3 -- 20.4 35 1017.7(0.0/3h) 20 -- -- --
13:00 26.2 26.2 10.3 SSO 13.0 -- 22.2 37 1017.7(0.0/3h) 20 -- -- --
12:00 26.6 26.6 10.6 SSO 13.0 -- 22.2 37 1017.7(0.1/3h) 20 -- -- --
11:00 25.5 25.5 10.3 SO 13.0 -- 20.4 38 1017.7(0.4/3h) 20 -- -- --
10:00 23.9 23.9 11.8 SSO 9.3 -- 14.8 47 1017.8(0.9/3h) 20 -- -- --
09:00 22.8 22.8 14.7 S 5.6 -- 9.3 60 1017.7(1.2/3h) 20 -- -- --
08:00 20.6 20.6 15.3 S 5.6 -- 9.3 72 1017.5(1.7/3h) 19 -- -- --
05:00 16.7 16.7 14.4 SSO 3.7 -- 9.3 86 1016(1.0/3h) 20 -- -- --
04:00 16.8 16.8 14.6 SSO 7.4 -- 7.4 87 1015.7(1.2/3h) 20 -- -- --
03:00 17.2 17.2 14.8 SSO 3.7 -- 7.4 86 1015.2(1.0/3h) 20 -- -- --
02:00 17.2 17.2 15.0 SSO 3.7 -- 5.6 87 1014.8(1.1/3h) 20 -- -- --
01:00 17.7 17.7 15.1 SSO 3.7 -- 7.4 85 1014.3(0.7/3h) 20 -- -- --
00:00 17.7 17.7 15.5 S 3.7 -- 7.4 87 1014.2(0.8/3h) 20 -- -- --

1 Coordinated Universal Time. Actuellement il est 06:00 locale et 05:00 UTC.

2 Le vent souffle depuis la direction indiquée vers la direction oposée.

3 Les rafales max. sont disponible 40 min après l'heure du relevé.

4 Pour les stations d'altitude (plus de 600m) le géopotentiel du niveau le plus proche de la pression obligatoire est indiqué.

5 Les stations disposant d'un diffuseur peuvent indiquer "trace". Cela signifie que des précipitations ont touchés le sol mais que la quantité est inférieure à 0.1 mm.

Récapitulatif de la journée
Température [°C] Vent [km/h] Ensoleillement4 [h] Precipitations totale5 [mm] Pression [Hpa]
Min1 Max.2 Moy.3 Max. Min Max.
-- 27.8 0 22.2 0 h 0 min 0 1014.2 1019.0

1 Température minimale relevée entre 18:00 UTC la veille et 18:00 UTC le jour donné.

2 Température maximale relevée entre 06:00 UTC le jour donné et 06:00 UTC le lendemain.

3 Vent moyen de la journée basé sur les relevés horaires.

4 Ensoleillement en heures relevé entre 06:00 UTC la veille et 06:00 UTC le jour donné.

5 Précipitations totales tombées entre 06:00 UTC la jour donné et 06:00 UTC le lendemain.

Graphiques horaires